Laird, Canada
Current Conditions -  °F | °C
As of 2:00 PM on Friday 28 Nov 2014 (Local Time) from CYXE Reporting Station
Light Snow Light Snow  
Wind Chill: -15°   Ceiling: 1200
Heat Index:   Visibility: 2mi
Dew Point:   Wind: 18mph
Humidity: 85%   Direction: 80°E
Pressure: 29.63"   Gusts: NA
Location:  52.72°N, 106.58°W
Report Text: CYXE 282000Z 08016KT 2SM -SN DRSN OVC012 M15/M17 A2963 RMK SN7SC1 VIS VRB 1-3 SLP080
Loading
Personal Weather Stations






























Interactive Weather Map New forecast layout! Learn more

10-Day Weather Forecast

Advertisements
Track Severe Weather on mobile